createdAt,value
2018-07-05T00:02:33.997Z,1.87
2018-07-05T00:05:13.189Z,2.13
2018-07-05T00:07:52.571Z,1.67
2018-07-05T00:10:31.691Z,1.50
2018-07-05T00:13:10.750Z,1.50
2018-07-05T00:15:50.558Z,1.70
2018-07-05T00:18:29.860Z,1.40
2018-07-05T00:21:09.003Z,2.00
2018-07-05T00:23:48.370Z,2.07
2018-07-05T00:26:27.548Z,1.67
2018-07-05T00:29:06.728Z,1.57
2018-07-05T00:31:45.856Z,1.20
2018-07-05T00:34:25.198Z,1.90
2018-07-05T00:37:04.529Z,2.03
2018-07-05T00:39:43.697Z,1.50
2018-07-05T00:42:23.028Z,1.37
2018-07-05T00:45:02.230Z,1.40
2018-07-05T00:47:41.391Z,2.90
2018-07-05T00:50:20.849Z,2.37
2018-07-05T00:53:00.106Z,2.37
2018-07-05T00:55:39.281Z,3.07
2018-07-05T00:58:18.695Z,4.53
2018-07-05T01:00:58.060Z,3.30
2018-07-05T01:03:37.623Z,2.60
2018-07-05T01:06:17.058Z,2.33
2018-07-05T01:08:56.279Z,1.90
2018-07-05T01:11:35.590Z,2.87
2018-07-05T01:14:14.936Z,2.30
2018-07-05T01:16:54.748Z,1.77
2018-07-05T01:19:34.163Z,2.60
2018-07-05T01:22:13.506Z,2.73
2018-07-05T01:24:52.928Z,2.37
2018-07-05T01:27:35.757Z,2.70
2018-07-05T01:30:15.218Z,1.63
2018-07-05T01:32:54.628Z,1.53
2018-07-05T01:35:34.259Z,2.03
2018-07-05T01:38:13.499Z,2.57
2018-07-05T01:40:52.783Z,2.07
2018-07-05T01:43:31.877Z,2.10
2018-07-05T01:46:12.201Z,1.93
2018-07-05T01:48:51.508Z,1.60
2018-07-05T01:51:30.811Z,1.90
2018-07-05T01:54:09.920Z,1.63
2018-07-05T02:02:33.134Z,1.93
2018-07-05T02:05:12.356Z,1.93
2018-07-05T02:07:51.604Z,2.30
2018-07-05T02:10:30.781Z,1.87
2018-07-05T02:13:10.029Z,3.17
2018-07-05T02:15:50.487Z,1.90
2018-07-05T02:18:29.647Z,3.07
2018-07-05T02:21:08.769Z,3.03
2018-07-05T02:23:48.209Z,2.23
2018-07-05T02:26:27.508Z,2.00
2018-07-05T02:29:06.847Z,2.27
2018-07-05T02:31:46.149Z,2.10
2018-07-05T02:34:25.416Z,1.77
2018-07-05T02:37:04.531Z,1.50
2018-07-05T02:39:48.774Z,2.53
2018-07-05T02:42:27.872Z,2.30
2018-07-05T02:45:07.554Z,2.57
2018-07-05T02:47:46.757Z,2.10
2018-07-05T02:50:26.214Z,1.80
2018-07-05T02:53:05.487Z,1.50
2018-07-05T02:55:44.668Z,2.00
2018-07-05T02:58:23.757Z,1.90
2018-07-05T03:01:03.113Z,2.07
2018-07-05T03:03:42.440Z,1.90
2018-07-05T03:06:21.580Z,2.30
2018-07-05T03:09:00.798Z,1.50
2018-07-05T03:11:39.952Z,2.07
2018-07-05T03:14:19.001Z,3.10
2018-07-05T03:16:58.358Z,2.80
2018-07-05T03:19:37.601Z,2.23
2018-07-05T03:22:16.998Z,2.60
2018-07-05T03:24:56.335Z,2.53
2018-07-05T03:27:35.632Z,1.70
2018-07-05T03:30:14.982Z,2.90
2018-07-05T03:32:54.052Z,3.30
2018-07-05T03:35:33.265Z,2.23
2018-07-05T03:38:13.171Z,2.10
2018-07-05T03:40:52.521Z,2.60
2018-07-05T03:43:31.872Z,2.20
2018-07-05T03:46:11.021Z,1.97
2018-07-05T03:48:44.442Z,2.40
2018-07-05T03:51:23.705Z,3.33
2018-07-05T03:54:02.968Z,2.40
2018-07-05T03:56:42.053Z,2.00
2018-07-05T03:59:21.204Z,2.30
2018-07-05T04:02:00.244Z,3.23
2018-07-05T04:04:39.453Z,2.37
2018-07-05T04:07:18.808Z,2.57
2018-07-05T04:09:58.102Z,3.13
2018-07-05T04:12:37.084Z,2.67
2018-07-05T04:15:16.216Z,3.20
2018-07-05T04:17:55.431Z,2.70
2018-07-05T04:20:34.469Z,2.20
2018-07-05T04:23:13.642Z,2.30
2018-07-05T04:25:52.940Z,1.90
2018-07-05T04:28:32.216Z,4.27
2018-07-05T04:31:11.528Z,8.53
2018-07-05T04:33:50.733Z,7.00
2018-07-05T04:36:30.014Z,6.63
2018-07-05T04:39:09.509Z,5.00
2018-07-05T04:41:48.851Z,5.43
2018-07-05T04:44:28.150Z,4.83
2018-07-05T04:47:07.446Z,4.63
2018-07-05T04:49:46.826Z,2.57
2018-07-05T04:52:25.979Z,3.50
2018-07-05T04:55:05.538Z,2.37
2018-07-05T04:57:44.763Z,2.03
2018-07-05T05:00:24.101Z,1.77
2018-07-05T05:03:03.368Z,2.20
2018-07-05T05:05:42.824Z,4.60
2018-07-05T05:08:22.120Z,2.67
2018-07-05T05:11:01.239Z,2.10
2018-07-05T05:13:40.479Z,1.83
2018-07-05T05:16:19.813Z,1.80
2018-07-05T05:18:59.345Z,2.10
2018-07-05T05:21:41.732Z,5.50
2018-07-05T05:24:20.983Z,5.07
2018-07-05T05:27:00.202Z,4.83
2018-07-05T05:29:39.421Z,5.60
2018-07-05T05:32:18.764Z,4.43
2018-07-05T05:34:58.109Z,5.53
2018-07-05T05:37:37.578Z,5.47
2018-07-05T05:40:16.931Z,6.40
2018-07-05T05:42:56.218Z,5.50
2018-07-05T05:45:35.302Z,5.03
2018-07-05T05:48:16.272Z,4.80
2018-07-05T05:50:55.415Z,5.40
2018-07-05T05:53:34.725Z,4.93
2018-07-05T05:56:14.100Z,5.13
2018-07-05T05:58:53.184Z,6.20
2018-07-05T06:01:32.416Z,6.30
2018-07-05T06:04:11.770Z,7.17
2018-07-05T06:06:50.829Z,6.60
2018-07-05T06:09:29.866Z,7.90
2018-07-05T06:12:08.972Z,7.13
2018-07-05T06:14:48.319Z,7.37
2018-07-05T06:17:27.624Z,7.77
2018-07-05T06:20:06.706Z,7.13
2018-07-05T06:22:45.901Z,6.07
2018-07-05T06:25:25.141Z,6.10
2018-07-05T06:28:04.433Z,5.70
2018-07-05T06:30:43.678Z,5.40
2018-07-05T06:33:23.016Z,6.20
2018-07-05T06:36:02.361Z,6.50
2018-07-05T06:38:41.528Z,6.87
2018-07-05T06:41:20.736Z,6.90
2018-07-05T06:43:59.932Z,6.73
2018-07-05T06:46:39.292Z,6.80
2018-07-05T06:49:18.520Z,5.97
2018-07-05T06:51:57.893Z,6.50
2018-07-05T06:54:37.316Z,5.73
2018-07-05T06:57:16.580Z,5.60
2018-07-05T06:59:55.744Z,5.20
2018-07-05T07:02:34.853Z,6.27
2018-07-05T07:05:14.237Z,6.30
2018-07-05T07:07:53.356Z,6.30
2018-07-05T07:10:32.492Z,6.20
2018-07-05T07:13:11.835Z,6.17
2018-07-05T07:15:51.324Z,6.60
2018-07-05T07:18:30.553Z,5.90
2018-07-05T07:21:09.613Z,5.60
2018-07-05T07:23:42.932Z,5.60
2018-07-05T07:26:22.093Z,5.17
2018-07-05T07:29:01.361Z,5.27
2018-07-05T07:31:40.599Z,5.00
2018-07-05T07:34:19.731Z,5.40
2018-07-05T07:36:59.075Z,5.03
2018-07-05T07:39:38.165Z,5.30
2018-07-05T07:42:04.900Z,4.57
2018-07-05T07:44:31.550Z,5.47
2018-07-05T07:46:58.190Z,5.90
2018-07-05T07:49:24.822Z,4.30
2018-07-05T07:51:51.493Z,5.00
2018-07-05T07:54:18.161Z,4.73
2018-07-05T07:56:44.797Z,5.53
2018-07-05T07:59:11.436Z,4.33
2018-07-05T08:01:38.230Z,3.87
2018-07-05T08:04:04.850Z,4.20
2018-07-05T08:06:31.539Z,4.67
2018-07-05T08:08:58.273Z,3.87
2018-07-05T08:11:25.412Z,3.87
2018-07-05T08:13:52.098Z,4.70
2018-07-05T08:16:18.774Z,3.80
2018-07-05T08:18:45.467Z,3.87
2018-07-05T08:21:12.152Z,3.53
2018-07-05T08:23:38.787Z,4.20
2018-07-05T08:26:05.406Z,4.00
2018-07-05T08:28:32.079Z,3.93
2018-07-05T08:30:58.720Z,3.87
2018-07-05T08:33:25.384Z,3.53
2018-07-05T08:35:52.056Z,3.63
2018-07-05T08:38:18.644Z,4.40
2018-07-05T08:40:45.345Z,3.27
2018-07-05T08:43:12.026Z,3.27
2018-07-05T08:45:38.746Z,3.70
2018-07-05T08:48:05.493Z,3.63
2018-07-05T08:50:32.350Z,4.07
2018-07-05T08:52:59.089Z,3.95
2018-07-05T08:55:25.854Z,4.03
2018-07-05T08:57:52.950Z,4.15
2018-07-05T09:00:19.621Z,3.37
2018-07-05T09:02:46.261Z,3.17
2018-07-05T09:05:12.868Z,3.00
2018-07-05T09:07:39.602Z,3.17
2018-07-05T09:10:06.303Z,2.98
2018-07-05T09:12:32.936Z,3.02
2018-07-05T09:14:59.596Z,3.70
2018-07-05T09:17:26.351Z,2.60
2018-07-05T09:19:52.987Z,3.20
2018-07-05T09:22:19.605Z,3.10
2018-07-05T09:24:46.288Z,3.30
2018-07-05T09:27:13.054Z,3.95
2018-07-05T09:29:39.705Z,4.10
2018-07-05T09:32:06.392Z,3.85
2018-07-05T09:34:33.031Z,4.33
2018-07-05T09:36:59.725Z,3.25
2018-07-05T09:39:26.490Z,3.02
2018-07-05T09:41:53.171Z,3.30
2018-07-05T09:44:20.035Z,3.47
2018-07-05T09:46:46.604Z,3.42
2018-07-05T09:49:13.267Z,3.83
2018-07-05T09:51:39.999Z,3.67
2018-07-05T09:54:06.520Z,3.30
2018-07-05T09:56:33.216Z,4.22
2018-07-05T09:58:59.785Z,3.47
2018-07-05T10:01:26.288Z,3.90
2018-07-05T10:03:52.830Z,3.55
2018-07-05T10:06:19.476Z,4.00
2018-07-05T10:08:46.003Z,3.90
2018-07-05T10:11:12.649Z,3.93
2018-07-05T10:13:39.330Z,4.30
2018-07-05T10:16:05.753Z,3.70
2018-07-05T10:18:32.273Z,3.93
2018-07-05T10:20:58.817Z,4.30
2018-07-05T10:23:25.337Z,3.70
2018-07-05T10:25:55.829Z,4.17
2018-07-05T10:28:22.372Z,4.20
2018-07-05T10:31:01.456Z,3.53
2018-07-05T10:33:40.674Z,3.60
2018-07-05T10:36:07.215Z,3.23
2018-07-05T10:38:33.751Z,3.57
2018-07-05T10:41:12.963Z,3.00
2018-07-05T10:43:52.087Z,4.37
2018-07-05T10:46:31.216Z,3.97
2018-07-05T10:49:10.244Z,3.70
2018-07-05T10:51:49.413Z,3.50
2018-07-05T10:54:28.403Z,4.30
2018-07-05T10:57:01.651Z,5.17
2018-07-05T10:59:40.556Z,4.90
2018-07-05T11:02:19.705Z,3.77
2018-07-05T11:04:58.915Z,3.23
2018-07-05T11:07:37.804Z,2.87
2018-07-05T11:10:16.872Z,2.73
2018-07-05T11:12:56.105Z,2.60
2018-07-05T11:15:35.107Z,2.00
2018-07-05T11:18:14.287Z,1.60
2018-07-05T11:20:53.306Z,1.93
2018-07-05T11:23:32.420Z,2.60
2018-07-05T11:26:11.500Z,2.17
2018-07-05T11:28:50.655Z,1.47
2018-07-05T11:31:23.732Z,1.57
2018-07-05T11:34:02.917Z,1.73
2018-07-05T11:36:41.867Z,1.80
2018-07-05T11:39:20.800Z,1.57
2018-07-05T11:41:59.844Z,1.60
2018-07-05T11:44:38.841Z,1.50
2018-07-05T11:47:17.946Z,1.27
2018-07-05T11:49:57.102Z,1.50
2018-07-05T11:52:36.164Z,1.53
2018-07-05T11:55:15.463Z,1.30
2018-07-05T11:57:54.615Z,1.50
2018-07-05T12:00:33.735Z,1.80
2018-07-05T12:03:12.910Z,1.77
2018-07-05T12:05:51.904Z,1.53
2018-07-05T12:08:30.825Z,1.57
2018-07-05T12:11:09.991Z,1.63
2018-07-05T12:13:48.927Z,1.37
2018-07-05T12:16:28.112Z,1.50
2018-07-05T12:19:01.270Z,1.60
2018-07-05T12:21:40.566Z,1.47
2018-07-05T12:24:19.801Z,1.80
2018-07-05T12:26:59.000Z,1.60
2018-07-05T12:29:38.021Z,1.57
2018-07-05T12:32:17.133Z,1.43
2018-07-05T12:34:50.272Z,2.00
2018-07-05T12:37:29.305Z,1.67
2018-07-05T12:40:08.358Z,1.90
2018-07-05T12:42:47.303Z,1.77
2018-07-05T12:45:26.500Z,1.63
2018-07-05T12:48:05.593Z,1.70
2018-07-05T12:50:44.927Z,1.53
2018-07-05T12:53:24.035Z,1.60
2018-07-05T12:56:03.096Z,1.60
2018-07-05T12:58:42.099Z,1.50
2018-07-05T13:01:21.174Z,1.73
2018-07-05T13:04:00.220Z,1.70
2018-07-05T13:06:39.268Z,1.40
2018-07-05T13:09:18.530Z,1.50
2018-07-05T13:11:57.475Z,1.70
2018-07-05T13:14:36.444Z,2.13
2018-07-05T13:17:15.667Z,1.47
2018-07-05T13:19:54.763Z,1.73
2018-07-05T13:22:34.069Z,1.90
2018-07-05T13:25:12.996Z,1.83
2018-07-05T13:27:51.970Z,1.80
2018-07-05T13:30:31.024Z,1.53
2018-07-05T13:33:10.172Z,1.70
2018-07-05T13:35:49.083Z,2.33
2018-07-05T13:38:28.110Z,1.80
2018-07-05T13:41:07.415Z,1.73
2018-07-05T13:43:46.533Z,1.80
2018-07-05T13:46:25.691Z,2.10
2018-07-05T13:49:04.594Z,1.47
2018-07-05T13:51:43.627Z,1.67
2018-07-05T13:54:22.695Z,1.70
2018-07-05T13:57:01.805Z,1.40
2018-07-05T13:59:40.683Z,1.63
2018-07-05T14:02:19.835Z,1.80
2018-07-05T14:04:52.970Z,1.70
2018-07-05T14:07:32.109Z,1.50
2018-07-05T14:10:11.239Z,1.60
2018-07-05T14:12:50.271Z,1.30
2018-07-05T14:15:29.460Z,1.47
2018-07-05T14:18:08.516Z,1.40
2018-07-05T14:20:47.541Z,1.47
2018-07-05T14:23:26.764Z,1.40
2018-07-05T14:26:05.770Z,1.50
2018-07-05T14:28:44.816Z,1.47
2018-07-05T14:31:18.216Z,1.50
2018-07-05T14:33:57.149Z,1.57
2018-07-05T14:36:36.285Z,1.40
2018-07-05T14:39:15.414Z,1.70
2018-07-05T14:41:56.647Z,1.40
2018-07-05T14:44:35.622Z,1.80
2018-07-05T14:47:14.572Z,1.97
2018-07-05T14:49:53.646Z,1.70
2018-07-05T14:52:32.856Z,1.20
2018-07-05T14:55:11.948Z,1.43
2018-07-05T14:57:50.980Z,1.50
2018-07-05T15:00:29.999Z,1.70
2018-07-05T15:03:08.872Z,2.00
2018-07-05T15:05:47.972Z,1.63
2018-07-05T15:08:26.834Z,1.57
2018-07-05T15:11:06.020Z,1.40
2018-07-05T15:13:45.130Z,1.50
2018-07-05T15:16:24.240Z,1.17
2018-07-05T15:19:03.324Z,1.20
2018-07-05T15:21:42.471Z,1.20
2018-07-05T15:24:21.533Z,1.10
2018-07-05T15:27:00.672Z,1.30
2018-07-05T15:29:39.711Z,1.50
2018-07-05T15:32:18.771Z,1.30
2018-07-05T15:34:57.668Z,1.90
2018-07-05T15:37:36.696Z,1.47
2018-07-05T15:40:15.619Z,1.60
2018-07-05T15:42:54.848Z,1.60
2018-07-05T15:45:33.967Z,1.40
2018-07-05T15:48:13.075Z,1.40
2018-07-05T15:50:52.228Z,1.80
2018-07-05T15:56:17.387Z,2.37
2018-07-05T15:58:57.176Z,1.70
2018-07-05T16:01:36.344Z,1.43
2018-07-05T16:04:15.450Z,2.00
2018-07-05T16:06:54.552Z,1.60
2018-07-05T16:09:33.797Z,1.50
2018-07-05T16:12:12.819Z,1.50
2018-07-05T16:14:51.952Z,1.77
2018-07-05T16:17:31.005Z,1.53
2018-07-05T16:20:10.018Z,1.63
2018-07-05T16:22:48.945Z,1.63
2018-07-05T16:25:27.916Z,1.37
2018-07-05T16:28:06.869Z,1.80
2018-07-05T16:30:45.989Z,2.10
2018-07-05T16:33:25.113Z,2.40
2018-07-05T16:36:04.077Z,2.60
2018-07-05T16:38:37.222Z,2.50
2018-07-05T16:41:16.318Z,2.00
2018-07-05T16:43:55.351Z,2.07
2018-07-05T16:46:34.544Z,2.80
2018-07-05T16:49:13.401Z,3.30
2018-07-05T16:51:52.535Z,2.27
2018-07-05T16:54:31.494Z,2.63
2018-07-05T16:57:10.649Z,2.70
2018-07-05T16:59:49.598Z,2.67
2018-07-05T17:02:28.752Z,2.80
2018-07-05T17:05:07.751Z,2.83
2018-07-05T17:07:46.891Z,3.03
2018-07-05T17:10:26.136Z,2.87
2018-07-05T17:13:05.195Z,3.00
2018-07-05T17:15:44.406Z,3.80
2018-07-05T17:18:23.469Z,3.13
2018-07-05T17:21:02.481Z,2.83
2018-07-05T17:23:41.698Z,3.77
2018-07-05T17:26:21.741Z,3.70
2018-07-05T17:29:00.720Z,2.93
2018-07-05T17:31:40.438Z,3.50
2018-07-05T17:34:19.691Z,3.23
2018-07-05T17:36:58.821Z,3.13
2018-07-05T17:39:37.855Z,2.90
2018-07-05T17:42:16.865Z,3.87
2018-07-05T17:44:55.829Z,4.03
2018-07-05T17:47:34.935Z,3.30
2018-07-05T17:50:13.868Z,3.77
2018-07-05T17:52:52.808Z,2.60
2018-07-05T17:55:32.144Z,2.43
2018-07-05T17:58:11.287Z,3.30
2018-07-05T18:00:50.588Z,2.90
2018-07-05T18:03:29.847Z,3.90
2018-07-05T18:06:08.986Z,2.80
2018-07-05T18:08:49.070Z,3.10
2018-07-05T18:11:28.055Z,3.17
2018-07-05T18:14:07.054Z,3.07
2018-07-05T18:16:46.031Z,3.37
2018-07-05T18:19:19.272Z,2.93
2018-07-05T18:21:58.365Z,3.10
2018-07-05T18:24:37.348Z,3.80
2018-07-05T18:27:18.435Z,3.87
2018-07-05T18:29:57.940Z,3.20
2018-07-05T18:32:37.034Z,2.97
2018-07-05T18:35:16.189Z,3.37
2018-07-05T18:37:55.487Z,2.70
2018-07-05T18:40:34.598Z,3.93
2018-07-05T18:43:13.688Z,2.30
2018-07-05T18:45:52.847Z,3.07
2018-07-05T18:48:31.897Z,2.57
2018-07-05T18:51:10.960Z,3.00
2018-07-05T18:53:50.287Z,2.50
2018-07-05T18:56:29.456Z,3.13
2018-07-05T18:59:08.831Z,3.07
2018-07-05T19:01:47.974Z,2.93
2018-07-05T19:04:26.946Z,3.83
2018-07-05T19:07:06.013Z,2.97
2018-07-05T19:09:45.350Z,3.57
2018-07-05T19:12:24.440Z,3.57
2018-07-05T19:15:10.927Z,4.30
2018-07-05T19:17:49.951Z,4.80
2018-07-05T19:20:29.181Z,4.10
2018-07-05T19:23:08.341Z,5.30
2018-07-05T19:25:41.875Z,5.43
2018-07-05T19:28:21.030Z,4.50
2018-07-05T19:31:00.150Z,4.10
2018-07-05T19:33:39.296Z,4.80
2018-07-05T19:36:18.585Z,4.80
2018-07-05T19:38:57.716Z,4.40
2018-07-05T19:41:36.688Z,4.97
2018-07-05T19:44:15.684Z,7.37
2018-07-05T19:46:55.091Z,5.37
2018-07-05T19:49:34.273Z,5.90
2018-07-05T19:52:13.479Z,4.47
2018-07-05T19:54:52.939Z,6.57
2018-07-05T19:57:32.000Z,4.40
2018-07-05T20:00:11.144Z,4.93
2018-07-05T20:02:50.209Z,4.57
2018-07-05T20:05:29.495Z,4.70
2018-07-05T20:08:08.632Z,4.63
2018-07-05T20:10:52.199Z,4.53
2018-07-05T20:13:31.192Z,4.50
2018-07-05T20:16:10.319Z,5.17
2018-07-05T20:18:49.446Z,7.40
2018-07-05T20:21:28.682Z,7.43
2018-07-05T20:24:07.927Z,8.53
2018-07-05T20:26:46.926Z,7.63
2018-07-05T20:29:25.995Z,8.30
2018-07-05T20:32:05.008Z,8.50
2018-07-05T20:34:45.092Z,7.90
2018-07-05T20:37:24.121Z,6.10
2018-07-05T20:40:03.135Z,8.00
2018-07-05T20:42:42.252Z,9.20
2018-07-05T20:45:21.354Z,7.70
2018-07-05T20:48:00.323Z,8.80
2018-07-05T20:50:39.437Z,7.83
2018-07-05T20:53:18.540Z,8.67
2018-07-05T20:55:57.620Z,9.03
2018-07-05T20:58:36.584Z,8.53
2018-07-05T21:01:15.660Z,6.97
2018-07-05T21:03:55.028Z,7.40
2018-07-05T21:06:34.459Z,7.43
2018-07-05T21:09:13.600Z,8.90
2018-07-05T21:11:52.876Z,9.77
2018-07-05T21:14:32.144Z,7.57
2018-07-05T21:17:11.140Z,6.83
2018-07-05T21:19:50.371Z,8.63
2018-07-05T21:22:29.289Z,6.87
2018-07-05T21:25:02.522Z,9.87
2018-07-05T21:27:41.669Z,10.43
2018-07-05T21:30:20.814Z,9.87
2018-07-05T21:32:59.911Z,9.27
2018-07-05T21:35:38.935Z,8.00
2018-07-05T21:38:17.954Z,9.17
2018-07-05T21:40:57.111Z,11.07
2018-07-05T21:43:36.528Z,7.10
2018-07-05T21:46:15.590Z,8.10
2018-07-05T21:48:54.664Z,10.73
2018-07-05T21:51:33.707Z,10.63
2018-07-05T21:54:12.783Z,9.13
2018-07-05T21:56:51.809Z,9.40
2018-07-05T21:59:30.921Z,7.60
2018-07-05T22:02:10.052Z,10.37
2018-07-05T22:04:49.083Z,10.50
2018-07-05T22:07:28.231Z,11.07
2018-07-05T22:10:07.388Z,11.50
2018-07-05T22:12:46.555Z,11.87
2018-07-05T22:15:25.792Z,10.60
2018-07-05T22:18:10.809Z,11.70
2018-07-05T22:20:56.816Z,10.10
2018-07-05T22:23:41.695Z,12.87
2018-07-05T22:26:26.569Z,12.77
2018-07-05T22:29:11.394Z,13.93
2018-07-05T22:31:56.049Z,12.60
2018-07-05T22:34:35.032Z,13.60
2018-07-05T22:37:14.235Z,13.73
2018-07-05T22:39:53.550Z,13.23
2018-07-05T22:42:32.571Z,11.87
2018-07-05T22:45:11.694Z,17.67
2018-07-05T22:47:50.627Z,14.70
2018-07-05T22:50:29.712Z,16.43
2018-07-05T22:53:08.728Z,14.90
2018-07-05T22:55:47.979Z,15.03
2018-07-05T22:58:27.000Z,14.27
2018-07-05T23:01:06.506Z,15.20
2018-07-05T23:03:45.611Z,15.53
2018-07-05T23:06:24.671Z,13.60
2018-07-05T23:09:03.995Z,15.87
2018-07-05T23:11:43.259Z,11.13
2018-07-05T23:14:22.278Z,13.43
2018-07-05T23:17:01.596Z,12.00
2018-07-05T23:19:41.284Z,9.40
2018-07-05T23:22:20.596Z,4.80
2018-07-05T23:25:00.884Z,5.50
2018-07-05T23:27:39.980Z,3.93
2018-07-05T23:30:19.036Z,4.20
2018-07-05T23:32:58.309Z,2.87
2018-07-05T23:35:31.726Z,2.63
2018-07-05T23:38:10.713Z,2.87
2018-07-05T23:40:49.672Z,2.07
2018-07-05T23:43:28.800Z,2.80
2018-07-05T23:46:02.049Z,2.43
2018-07-05T23:48:41.021Z,2.63
2018-07-05T23:51:14.410Z,2.53
2018-07-05T23:53:53.512Z,2.83
2018-07-05T23:56:32.775Z,2.30
2018-07-05T23:59:11.839Z,3.00
